Kilauea, HI

9:19 PM HST on December 25, 2014 (GMT -1000)
RAWS MOLOAA DAIRY HI US | Change Station
CLOSE
Current Station
Personal Weather Station
Location: Anahola, HI
Elevation: 337 ft
Nearby Weather Stations

Elev 337 ft 22.18 °N, 159.34 °W | Updated 790 days ago

Partly Cloudy
Partly Cloudy
72 °F
Feels Like 72 °F
N
21
Wind Variable Wind from NNW
Gusts 26 mph

Today
High -- | Low -- °F
--% Chance of Precip.
Yesterday
High -- | Low -- °F
Precip. -- in
7:14 AM 6:01 PM
Waxing Crescent, 23% visible
Pressure 29.81 in
Visibility 10.0 miles
Clouds Clear
Dew Point 65 °F
Humidity 82%
Rainfall 0.00 in
Snow Depth Not available.
UV 0 out of 12
Pollen Not available.
Air Quality Not available.
Flu Activity Not available.
METAR PHLI 260653Z 27005KT 10SM CLR 21/15 A2982 RMK AO2 SLP095 T02060150 $

More Conditions Fewer Conditions

Pressure 29.81 in
Visibility 10.0 miles
Clouds Clear
Dew Point 65 °F
Humidity 82%
Rainfall 0.00 in
Snow Depth Not available.
UV 0 out of 12
Pollen Not available.
Air Quality Not available.
Flu Activity Not available.
METAR PHLI 260653Z 27005KT 10SM CLR 21/15 A2982 RMK AO2 SLP095 T02060150 $

More Conditions Fewer Conditions

10-Day Weather Forecast

Almanac

Astronomy

Dec. 25, 2014 Rise Set
Actual Time
Civil Twilight
Nautical Twilight
Astronomical Twilight
Moon
Length of Visible Light
Length of Day
Tomorrow will be .
, % of the Moon is Illuminated

Today's Extremes

State Highs State Lows

Community

WunderPhotos

Upload Photos

1,780,571 photos uploaded!

WunderBlogs® & News

Nearby

Air Quality

  Air Quality AQ Index Pollutant
Not available.

Snow Depth

Station Depth Elevation

Earthquake Activity

City Distance Mag. Time & Date
Minimum magnitude displayed is 2.5.

Coastal Water Temperatures

Place Temperature

Nearby Weather Stations